sensor_id;sensor_type;location;lat;lon;timestamp;temperature;humidity
27797;DHT22;15177;50.844;4.412;2023-02-05T00:00:15;10.10;99.90
27797;DHT22;15177;50.844;4.412;2023-02-05T00:02:41;10.00;99.90
27797;DHT22;15177;50.844;4.412;2023-02-05T00:05:07;10.00;99.90
27797;DHT22;15177;50.844;4.412;2023-02-05T00:07:33;10.10;99.90
27797;DHT22;15177;50.844;4.412;2023-02-05T00:09:58;10.10;99.90
27797;DHT22;15177;50.844;4.412;2023-02-05T00:12:24;10.20;99.90
27797;DHT22;15177;50.844;4.412;2023-02-05T00:14:50;10.20;99.90
27797;DHT22;15177;50.844;4.412;2023-02-05T00:17:15;10.20;99.90
27797;DHT22;15177;50.844;4.412;2023-02-05T00:19:41;10.30;99.90
27797;DHT22;15177;50.844;4.412;2023-02-05T00:22:07;10.40;99.90
27797;DHT22;15177;50.844;4.412;2023-02-05T00:24:32;10.40;99.90
27797;DHT22;15177;50.844;4.412;2023-02-05T00:26:58;10.20;99.90
27797;DHT22;15177;50.844;4.412;2023-02-05T00:29:23;10.20;99.90
27797;DHT22;15177;50.844;4.412;2023-02-05T00:31:49;10.20;99.90
27797;DHT22;15177;50.844;4.412;2023-02-05T00:34:15;10.30;99.90
27797;DHT22;15177;50.844;4.412;2023-02-05T00:36:42;10.30;99.90
27797;DHT22;15177;50.844;4.412;2023-02-05T00:39:08;10.30;99.90
27797;DHT22;15177;50.844;4.412;2023-02-05T00:41:36;10.20;99.90
27797;DHT22;15177;50.844;4.412;2023-02-05T00:44:01;10.10;99.90
27797;DHT22;15177;50.844;4.412;2023-02-05T00:46:27;10.10;99.90
27797;DHT22;15177;50.844;4.412;2023-02-05T00:48:53;10.00;99.90
27797;DHT22;15177;50.844;4.412;2023-02-05T00:51:18;10.10;99.90
27797;DHT22;15177;50.844;4.412;2023-02-05T00:53:45;10.10;99.90
27797;DHT22;15177;50.844;4.412;2023-02-05T00:56:11;10.20;99.90
27797;DHT22;15177;50.844;4.412;2023-02-05T00:58:37;10.20;99.90
27797;DHT22;15177;50.844;4.412;2023-02-05T01:01:02;10.30;99.90
27797;DHT22;15177;50.844;4.412;2023-02-05T01:03:28;10.50;99.90
27797;DHT22;15177;50.844;4.412;2023-02-05T01:05:54;10.30;99.90
27797;DHT22;15177;50.844;4.412;2023-02-05T01:08:20;10.20;99.90
27797;DHT22;15177;50.844;4.412;2023-02-05T01:10:47;10.40;99.90
27797;DHT22;15177;50.844;4.412;2023-02-05T01:13:14;10.20;99.90
27797;DHT22;15177;50.844;4.412;2023-02-05T01:15:39;10.20;99.90
27797;DHT22;15177;50.844;4.412;2023-02-05T01:18:06;10.20;99.90
27797;DHT22;15177;50.844;4.412;2023-02-05T01:20:32;10.20;99.90
27797;DHT22;15177;50.844;4.412;2023-02-05T01:22:57;10.20;99.90
27797;DHT22;15177;50.844;4.412;2023-02-05T01:25:23;10.20;99.90
27797;DHT22;15177;50.844;4.412;2023-02-05T01:27:49;10.20;99.90
27797;DHT22;15177;50.844;4.412;2023-02-05T01:30:15;10.20;99.90
27797;DHT22;15177;50.844;4.412;2023-02-05T01:32:40;10.30;99.90
27797;DHT22;15177;50.844;4.412;2023-02-05T01:35:07;10.30;99.90
27797;DHT22;15177;50.844;4.412;2023-02-05T01:37:33;10.40;99.90
27797;DHT22;15177;50.844;4.412;2023-02-05T01:39:58;10.30;99.90
27797;DHT22;15177;50.844;4.412;2023-02-05T01:42:27;10.20;99.90
27797;DHT22;15177;50.844;4.412;2023-02-05T01:50:17;10.40;99.90
27797;DHT22;15177;50.844;4.412;2023-02-05T01:52:43;10.40;99.90
27797;DHT22;15177;50.844;4.412;2023-02-05T01:55:10;10.30;99.90
27797;DHT22;15177;50.844;4.412;2023-02-05T01:57:37;10.20;99.90
27797;DHT22;15177;50.844;4.412;2023-02-05T02:00:05;10.20;99.90
27797;DHT22;15177;50.844;4.412;2023-02-05T02:02:33;10.20;99.90
27797;DHT22;15177;50.844;4.412;2023-02-05T02:05:02;10.10;99.90
27797;DHT22;15177;50.844;4.412;2023-02-05T02:07:31;10.00;99.90
27797;DHT22;15177;50.844;4.412;2023-02-05T02:09:57;9.90;99.90
27797;DHT22;15177;50.844;4.412;2023-02-05T02:12:27;9.90;99.90
27797;DHT22;15177;50.844;4.412;2023-02-05T02:14:57;9.90;99.90
27797;DHT22;15177;50.844;4.412;2023-02-05T02:17:25;9.90;99.90
27797;DHT22;15177;50.844;4.412;2023-02-05T02:20:02;9.80;99.90
27797;DHT22;15177;50.844;4.412;2023-02-05T02:30:41;9.60;99.90
27797;DHT22;15177;50.844;4.412;2023-02-05T02:35:48;9.70;99.90
27797;DHT22;15177;50.844;4.412;2023-02-05T02:40:55;9.80;99.90
27797;DHT22;15177;50.844;4.412;2023-02-05T02:43:31;9.90;99.90
27797;DHT22;15177;50.844;4.412;2023-02-05T02:48:49;9.80;99.90
27797;DHT22;15177;50.844;4.412;2023-02-05T02:51:16;9.90;99.90
27797;DHT22;15177;50.844;4.412;2023-02-05T02:53:47;9.80;99.90
27797;DHT22;15177;50.844;4.412;2023-02-05T02:56:14;9.70;99.90
27797;DHT22;15177;50.844;4.412;2023-02-05T02:58:50;9.90;99.90
27797;DHT22;15177;50.844;4.412;2023-02-05T03:01:23;9.90;99.90
27797;DHT22;15177;50.844;4.412;2023-02-05T03:03:53;9.90;99.90
27797;DHT22;15177;50.844;4.412;2023-02-05T03:06:21;9.80;99.90
27797;DHT22;15177;50.844;4.412;2023-02-05T03:09:08;9.80;99.90
27797;DHT22;15177;50.844;4.412;2023-02-05T03:11:36;9.70;99.90
27797;DHT22;15177;50.844;4.412;2023-02-05T03:14:02;9.80;99.90
27797;DHT22;15177;50.844;4.412;2023-02-05T03:16:27;9.80;99.90
27797;DHT22;15177;50.844;4.412;2023-02-05T03:18:54;9.70;99.90
27797;DHT22;15177;50.844;4.412;2023-02-05T03:21:27;9.70;99.90
27797;DHT22;15177;50.844;4.412;2023-02-05T03:23:53;9.60;99.90
27797;DHT22;15177;50.844;4.412;2023-02-05T03:26:26;9.50;99.90
27797;DHT22;15177;50.844;4.412;2023-02-05T03:28:54;9.40;99.90
27797;DHT22;15177;50.844;4.412;2023-02-05T03:31:24;9.30;99.90
27797;DHT22;15177;50.844;4.412;2023-02-05T03:34:09;9.20;99.90
27797;DHT22;15177;50.844;4.412;2023-02-05T03:39:34;9.40;99.90
27797;DHT22;15177;50.844;4.412;2023-02-05T03:45:01;9.50;99.90
27797;DHT22;15177;50.844;4.412;2023-02-05T03:47:37;9.40;99.90
27797;DHT22;15177;50.844;4.412;2023-02-05T03:50:28;9.20;99.90
27797;DHT22;15177;50.844;4.412;2023-02-05T03:53:21;9.00;99.90
27797;DHT22;15177;50.844;4.412;2023-02-05T03:55:54;9.00;99.90
27797;DHT22;15177;50.844;4.412;2023-02-05T03:58:28;9.10;99.90
27797;DHT22;15177;50.844;4.412;2023-02-05T04:00:57;9.10;99.90
27797;DHT22;15177;50.844;4.412;2023-02-05T04:03:23;9.10;99.90
27797;DHT22;15177;50.844;4.412;2023-02-05T04:05:48;9.10;99.90
27797;DHT22;15177;50.844;4.412;2023-02-05T04:08:14;9.10;99.90
27797;DHT22;15177;50.844;4.412;2023-02-05T04:10:40;9.20;99.90
27797;DHT22;15177;50.844;4.412;2023-02-05T04:13:05;9.20;99.90
27797;DHT22;15177;50.844;4.412;2023-02-05T04:15:31;9.30;99.90
27797;DHT22;15177;50.844;4.412;2023-02-05T04:17:57;9.20;99.90
27797;DHT22;15177;50.844;4.412;2023-02-05T04:20:23;9.20;99.90
27797;DHT22;15177;50.844;4.412;2023-02-05T04:22:48;9.30;99.90
27797;DHT22;15177;50.844;4.412;2023-02-05T04:25:14;9.30;99.90
27797;DHT22;15177;50.844;4.412;2023-02-05T04:27:40;9.30;99.90
27797;DHT22;15177;50.844;4.412;2023-02-05T04:30:06;9.40;99.90
27797;DHT22;15177;50.844;4.412;2023-02-05T04:32:32;9.40;99.90
27797;DHT22;15177;50.844;4.412;2023-02-05T04:34:57;9.50;99.90
27797;DHT22;15177;50.844;4.412;2023-02-05T04:37:23;9.50;99.90
27797;DHT22;15177;50.844;4.412;2023-02-05T04:39:50;9.50;99.90
27797;DHT22;15177;50.844;4.412;2023-02-05T04:42:16;9.50;99.90
27797;DHT22;15177;50.844;4.412;2023-02-05T04:44:42;9.40;99.90
27797;DHT22;15177;50.844;4.412;2023-02-05T04:47:07;9.50;99.90
27797;DHT22;15177;50.844;4.412;2023-02-05T04:49:33;9.40;99.90
27797;DHT22;15177;50.844;4.412;2023-02-05T04:52:00;9.40;99.90
27797;DHT22;15177;50.844;4.412;2023-02-05T04:54:25;9.30;99.90
27797;DHT22;15177;50.844;4.412;2023-02-05T04:56:52;9.30;99.90
27797;DHT22;15177;50.844;4.412;2023-02-05T04:59:18;9.30;99.90
27797;DHT22;15177;50.844;4.412;2023-02-05T05:01:44;9.20;99.90
27797;DHT22;15177;50.844;4.412;2023-02-05T05:04:09;9.20;99.90
27797;DHT22;15177;50.844;4.412;2023-02-05T05:06:35;9.20;99.90
27797;DHT22;15177;50.844;4.412;2023-02-05T05:09:01;9.20;99.90
27797;DHT22;15177;50.844;4.412;2023-02-05T05:11:26;9.10;99.90
27797;DHT22;15177;50.844;4.412;2023-02-05T05:13:52;9.20;99.90
27797;DHT22;15177;50.844;4.412;2023-02-05T05:16:18;9.20;99.90
27797;DHT22;15177;50.844;4.412;2023-02-05T05:18:44;9.20;99.90
27797;DHT22;15177;50.844;4.412;2023-02-05T05:21:10;9.20;99.90
27797;DHT22;15177;50.844;4.412;2023-02-05T05:23:37;9.20;99.90
27797;DHT22;15177;50.844;4.412;2023-02-05T05:26:04;9.20;99.90
27797;DHT22;15177;50.844;4.412;2023-02-05T05:28:30;9.20;99.90
27797;DHT22;15177;50.844;4.412;2023-02-05T05:30:59;9.20;99.90
27797;DHT22;15177;50.844;4.412;2023-02-05T05:33:25;9.00;99.90
27797;DHT22;15177;50.844;4.412;2023-02-05T05:35:51;9.00;99.90
27797;DHT22;15177;50.844;4.412;2023-02-05T05:38:17;9.00;99.90
27797;DHT22;15177;50.844;4.412;2023-02-05T05:40:43;8.90;99.90
27797;DHT22;15177;50.844;4.412;2023-02-05T05:43:27;8.90;99.90
27797;DHT22;15177;50.844;4.412;2023-02-05T05:46:11;8.90;99.90
27797;DHT22;15177;50.844;4.412;2023-02-05T05:48:37;8.80;99.90
27797;DHT22;15177;50.844;4.412;2023-02-05T05:51:04;8.90;99.90
27797;DHT22;15177;50.844;4.412;2023-02-05T05:53:30;8.80;99.90
27797;DHT22;15177;50.844;4.412;2023-02-05T05:55:57;8.90;99.90
27797;DHT22;15177;50.844;4.412;2023-02-05T05:58:22;9.00;99.90
27797;DHT22;15177;50.844;4.412;2023-02-05T06:00:48;8.90;99.90
27797;DHT22;15177;50.844;4.412;2023-02-05T06:03:14;8.90;99.90
27797;DHT22;15177;50.844;4.412;2023-02-05T06:05:40;8.80;99.90
27797;DHT22;15177;50.844;4.412;2023-02-05T06:08:06;8.70;99.90
27797;DHT22;15177;50.844;4.412;2023-02-05T06:10:31;8.70;99.90
27797;DHT22;15177;50.844;4.412;2023-02-05T06:12:58;8.60;99.90
27797;DHT22;15177;50.844;4.412;2023-02-05T06:15:24;8.60;99.90
27797;DHT22;15177;50.844;4.412;2023-02-05T06:17:51;8.50;99.90
27797;DHT22;15177;50.844;4.412;2023-02-05T06:20:17;8.50;99.90
27797;DHT22;15177;50.844;4.412;2023-02-05T06:22:43;8.50;99.90
27797;DHT22;15177;50.844;4.412;2023-02-05T06:25:09;8.50;99.90
27797;DHT22;15177;50.844;4.412;2023-02-05T06:27:35;8.60;99.90
27797;DHT22;15177;50.844;4.412;2023-02-05T06:30:00;8.40;99.90
27797;DHT22;15177;50.844;4.412;2023-02-05T06:32:26;8.40;99.90
27797;DHT22;15177;50.844;4.412;2023-02-05T06:34:52;8.50;99.90
27797;DHT22;15177;50.844;4.412;2023-02-05T06:37:17;8.50;99.90
27797;DHT22;15177;50.844;4.412;2023-02-05T06:39:43;8.50;99.90
27797;DHT22;15177;50.844;4.412;2023-02-05T06:42:09;8.50;99.90
27797;DHT22;15177;50.844;4.412;2023-02-05T06:44:34;8.50;99.90
27797;DHT22;15177;50.844;4.412;2023-02-05T06:47:02;8.50;99.90
27797;DHT22;15177;50.844;4.412;2023-02-05T06:49:27;8.50;99.90
27797;DHT22;15177;50.844;4.412;2023-02-05T06:51:53;8.40;99.90
27797;DHT22;15177;50.844;4.412;2023-02-05T06:54:19;8.30;99.90
27797;DHT22;15177;50.844;4.412;2023-02-05T06:56:45;8.20;99.90
27797;DHT22;15177;50.844;4.412;2023-02-05T06:59:11;8.20;99.90
27797;DHT22;15177;50.844;4.412;2023-02-05T07:01:36;8.20;99.90
27797;DHT22;15177;50.844;4.412;2023-02-05T07:04:02;8.20;99.90
27797;DHT22;15177;50.844;4.412;2023-02-05T07:06:27;8.30;99.90
27797;DHT22;15177;50.844;4.412;2023-02-05T07:08:54;8.20;99.90
27797;DHT22;15177;50.844;4.412;2023-02-05T07:11:20;8.10;99.90
27797;DHT22;15177;50.844;4.412;2023-02-05T07:13:46;8.20;99.90
27797;DHT22;15177;50.844;4.412;2023-02-05T07:16:12;8.20;99.90
27797;DHT22;15177;50.844;4.412;2023-02-05T07:18:38;8.20;99.90
27797;DHT22;15177;50.844;4.412;2023-02-05T07:21:05;8.10;99.90
27797;DHT22;15177;50.844;4.412;2023-02-05T07:23:31;8.10;99.90
27797;DHT22;15177;50.844;4.412;2023-02-05T07:25:57;8.10;99.90
27797;DHT22;15177;50.844;4.412;2023-02-05T07:28:23;8.20;99.90
27797;DHT22;15177;50.844;4.412;2023-02-05T07:30:49;8.20;99.90
27797;DHT22;15177;50.844;4.412;2023-02-05T07:33:15;8.20;99.90
27797;DHT22;15177;50.844;4.412;2023-02-05T07:35:41;8.00;99.90
27797;DHT22;15177;50.844;4.412;2023-02-05T07:38:07;7.90;99.90
27797;DHT22;15177;50.844;4.412;2023-02-05T07:40:32;7.80;99.90
27797;DHT22;15177;50.844;4.412;2023-02-05T07:42:58;7.70;99.90
27797;DHT22;15177;50.844;4.412;2023-02-05T07:45:24;7.60;99.90
27797;DHT22;15177;50.844;4.412;2023-02-05T07:47:49;7.60;99.90
27797;DHT22;15177;50.844;4.412;2023-02-05T07:50:16;7.60;99.90
27797;DHT22;15177;50.844;4.412;2023-02-05T07:52:42;7.60;99.90
27797;DHT22;15177;50.844;4.412;2023-02-05T07:55:08;7.60;99.90
27797;DHT22;15177;50.844;4.412;2023-02-05T07:57:33;7.70;99.90
27797;DHT22;15177;50.844;4.412;2023-02-05T07:59:59;7.80;99.90
27797;DHT22;15177;50.844;4.412;2023-02-05T08:02:25;7.90;99.90
27797;DHT22;15177;50.844;4.412;2023-02-05T08:04:51;7.90;99.90
27797;DHT22;15177;50.844;4.412;2023-02-05T08:07:18;7.80;99.90
27797;DHT22;15177;50.844;4.412;2023-02-05T08:09:44;7.90;99.90
27797;DHT22;15177;50.844;4.412;2023-02-05T08:12:09;7.80;99.90
27797;DHT22;15177;50.844;4.412;2023-02-05T08:14:35;7.90;99.90
27797;DHT22;15177;50.844;4.412;2023-02-05T08:17:01;7.90;99.90
27797;DHT22;15177;50.844;4.412;2023-02-05T08:19:26;7.90;99.90
27797;DHT22;15177;50.844;4.412;2023-02-05T08:21:52;8.00;99.90
27797;DHT22;15177;50.844;4.412;2023-02-05T08:24:18;8.00;99.90
27797;DHT22;15177;50.844;4.412;2023-02-05T08:26:44;8.10;99.90
27797;DHT22;15177;50.844;4.412;2023-02-05T08:29:10;8.20;99.90
27797;DHT22;15177;50.844;4.412;2023-02-05T08:31:35;8.30;99.90
27797;DHT22;15177;50.844;4.412;2023-02-05T08:34:02;8.40;99.90
27797;DHT22;15177;50.844;4.412;2023-02-05T08:36:28;8.30;99.90
27797;DHT22;15177;50.844;4.412;2023-02-05T08:38:55;8.30;99.90
27797;DHT22;15177;50.844;4.412;2023-02-05T08:41:21;8.40;99.90
27797;DHT22;15177;50.844;4.412;2023-02-05T08:43:48;8.40;99.90
27797;DHT22;15177;50.844;4.412;2023-02-05T08:46:17;8.40;99.90
27797;DHT22;15177;50.844;4.412;2023-02-05T08:48:44;8.40;99.90
27797;DHT22;15177;50.844;4.412;2023-02-05T08:51:11;8.40;99.90
27797;DHT22;15177;50.844;4.412;2023-02-05T08:53:37;8.50;99.90
27797;DHT22;15177;50.844;4.412;2023-02-05T08:56:04;8.40;99.90
27797;DHT22;15177;50.844;4.412;2023-02-05T08:58:31;8.40;99.90
27797;DHT22;15177;50.844;4.412;2023-02-05T09:01:12;8.40;99.90
27797;DHT22;15177;50.844;4.412;2023-02-05T09:03:38;8.30;99.90
27797;DHT22;15177;50.844;4.412;2023-02-05T09:06:09;8.50;99.90
27797;DHT22;15177;50.844;4.412;2023-02-05T09:08:35;8.40;99.90
27797;DHT22;15177;50.844;4.412;2023-02-05T09:11:01;8.40;99.90
27797;DHT22;15177;50.844;4.412;2023-02-05T09:13:29;8.30;99.90
27797;DHT22;15177;50.844;4.412;2023-02-05T09:15:55;8.50;99.90
27797;DHT22;15177;50.844;4.412;2023-02-05T09:18:20;8.50;99.90
27797;DHT22;15177;50.844;4.412;2023-02-05T09:20:48;8.50;99.90
27797;DHT22;15177;50.844;4.412;2023-02-05T09:23:16;8.50;99.90
27797;DHT22;15177;50.844;4.412;2023-02-05T09:25:43;8.50;99.90
27797;DHT22;15177;50.844;4.412;2023-02-05T09:28:10;8.60;99.90
27797;DHT22;15177;50.844;4.412;2023-02-05T09:30:38;8.50;99.90
27797;DHT22;15177;50.844;4.412;2023-02-05T09:33:05;8.50;99.90
27797;DHT22;15177;50.844;4.412;2023-02-05T09:35:32;8.50;99.90
27797;DHT22;15177;50.844;4.412;2023-02-05T09:37:59;8.30;99.90
27797;DHT22;15177;50.844;4.412;2023-02-05T09:40:30;8.20;99.90
27797;DHT22;15177;50.844;4.412;2023-02-05T09:46:20;8.00;99.90
27797;DHT22;15177;50.844;4.412;2023-02-05T09:51:42;8.20;99.90
27797;DHT22;15177;50.844;4.412;2023-02-05T09:54:15;8.30;99.90
27797;DHT22;15177;50.844;4.412;2023-02-05T09:56:43;8.50;99.90
27797;DHT22;15177;50.844;4.412;2023-02-05T09:59:17;8.60;99.90
27797;DHT22;15177;50.844;4.412;2023-02-05T10:04:14;8.90;99.90
27797;DHT22;15177;50.844;4.412;2023-02-05T10:12:37;9.00;99.90
27797;DHT22;15177;50.844;4.412;2023-02-05T10:18:18;9.10;99.90
27797;DHT22;15177;50.844;4.412;2023-02-05T10:26:24;9.60;99.90
27797;DHT22;15177;50.844;4.412;2023-02-05T10:36:42;9.90;99.90
27797;DHT22;15177;50.844;4.412;2023-02-05T10:39:14;10.30;99.90
27797;DHT22;15177;50.844;4.412;2023-02-05T10:41:57;10.40;99.90
27797;DHT22;15177;50.844;4.412;2023-02-05T10:44:39;10.30;99.90
27797;DHT22;15177;50.844;4.412;2023-02-05T10:49:53;10.10;99.90
27797;DHT22;15177;50.844;4.412;2023-02-05T10:52:20;9.90;99.90
27797;DHT22;15177;50.844;4.412;2023-02-05T10:54:46;9.80;99.90
27797;DHT22;15177;50.844;4.412;2023-02-05T10:57:18;9.70;99.90
27797;DHT22;15177;50.844;4.412;2023-02-05T10:59:54;9.60;99.90
27797;DHT22;15177;50.844;4.412;2023-02-05T11:02:21;9.60;99.90
27797;DHT22;15177;50.844;4.412;2023-02-05T11:04:55;9.30;99.90
27797;DHT22;15177;50.844;4.412;2023-02-05T11:07:44;9.20;99.90
27797;DHT22;15177;50.844;4.412;2023-02-05T11:10:28;9.20;99.90
27797;DHT22;15177;50.844;4.412;2023-02-05T11:12:58;9.20;99.90
27797;DHT22;15177;50.844;4.412;2023-02-05T11:15:27;9.20;99.90
27797;DHT22;15177;50.844;4.412;2023-02-05T11:17:59;9.30;99.90
27797;DHT22;15177;50.844;4.412;2023-02-05T11:20:34;9.20;99.90
27797;DHT22;15177;50.844;4.412;2023-02-05T11:23:21;9.20;99.90
27797;DHT22;15177;50.844;4.412;2023-02-05T11:25:57;9.30;99.90
27797;DHT22;15177;50.844;4.412;2023-02-05T11:30:53;9.30;99.90
27797;DHT22;15177;50.844;4.412;2023-02-05T11:33:25;9.40;99.90
27797;DHT22;15177;50.844;4.412;2023-02-05T11:36:02;9.50;99.90
27797;DHT22;15177;50.844;4.412;2023-02-05T11:38:43;9.70;99.90
27797;DHT22;15177;50.844;4.412;2023-02-05T11:41:12;9.60;99.90
27797;DHT22;15177;50.844;4.412;2023-02-05T11:43:58;9.50;99.90
27797;DHT22;15177;50.844;4.412;2023-02-05T11:46:27;9.50;99.90
27797;DHT22;15177;50.844;4.412;2023-02-05T11:48:57;9.50;99.90
27797;DHT22;15177;50.844;4.412;2023-02-05T11:51:39;9.50;99.90
27797;DHT22;15177;50.844;4.412;2023-02-05T11:54:27;9.60;99.90
27797;DHT22;15177;50.844;4.412;2023-02-05T12:02:30;9.30;99.90
27797;DHT22;15177;50.844;4.412;2023-02-05T12:07:59;9.40;99.90
27797;DHT22;15177;50.844;4.412;2023-02-05T12:25:00;9.80;99.90
27797;DHT22;15177;50.844;4.412;2023-02-05T12:27:54;9.80;99.90
27797;DHT22;15177;50.844;4.412;2023-02-05T12:33:35;9.90;99.90
27797;DHT22;15177;50.844;4.412;2023-02-05T12:47:40;9.90;99.90
27797;DHT22;15177;50.844;4.412;2023-02-05T12:58:10;9.90;99.90
27797;DHT22;15177;50.844;4.412;2023-02-05T13:00:46;10.00;99.90
27797;DHT22;15177;50.844;4.412;2023-02-05T13:03:24;10.00;99.90
27797;DHT22;15177;50.844;4.412;2023-02-05T13:05:58;9.90;99.90
27797;DHT22;15177;50.844;4.412;2023-02-05T13:08:40;9.90;99.90
27797;DHT22;15177;50.844;4.412;2023-02-05T13:11:29;9.80;99.90
27797;DHT22;15177;50.844;4.412;2023-02-05T13:14:13;9.80;99.90
27797;DHT22;15177;50.844;4.412;2023-02-05T13:16:44;9.70;99.90
27797;DHT22;15177;50.844;4.412;2023-02-05T13:21:56;9.60;99.90
27797;DHT22;15177;50.844;4.412;2023-02-05T13:24:45;9.70;99.90
27797;DHT22;15177;50.844;4.412;2023-02-05T13:27:35;9.90;99.90
27797;DHT22;15177;50.844;4.412;2023-02-05T13:30:25;10.00;99.90
27797;DHT22;15177;50.844;4.412;2023-02-05T13:32:56;9.90;99.90
27797;DHT22;15177;50.844;4.412;2023-02-05T13:35:23;9.70;99.90
27797;DHT22;15177;50.844;4.412;2023-02-05T13:37:58;9.80;99.90
27797;DHT22;15177;50.844;4.412;2023-02-05T13:43:30;9.70;99.90
27797;DHT22;15177;50.844;4.412;2023-02-05T13:48:59;9.80;99.90
27797;DHT22;15177;50.844;4.412;2023-02-05T13:54:38;9.70;99.90
27797;DHT22;15177;50.844;4.412;2023-02-05T14:00:09;9.70;99.90
27797;DHT22;15177;50.844;4.412;2023-02-05T14:02:45;9.80;99.90
27797;DHT22;15177;50.844;4.412;2023-02-05T14:05:14;9.90;99.90
27797;DHT22;15177;50.844;4.412;2023-02-05T14:07:47;9.80;99.90
27797;DHT22;15177;50.844;4.412;2023-02-05T14:10:29;9.80;99.90
27797;DHT22;15177;50.844;4.412;2023-02-05T14:13:29;9.70;99.90
27797;DHT22;15177;50.844;4.412;2023-02-05T14:16:37;9.60;99.90
27797;DHT22;15177;50.844;4.412;2023-02-05T14:19:19;9.60;99.90
27797;DHT22;15177;50.844;4.412;2023-02-05T14:21:57;9.60;99.90
27797;DHT22;15177;50.844;4.412;2023-02-05T14:24:28;9.60;99.90
27797;DHT22;15177;50.844;4.412;2023-02-05T14:27:02;9.60;99.90
27797;DHT22;15177;50.844;4.412;2023-02-05T14:29:47;9.50;99.90
27797;DHT22;15177;50.844;4.412;2023-02-05T14:32:54;9.40;99.90
27797;DHT22;15177;50.844;4.412;2023-02-05T14:35:32;9.40;99.90
27797;DHT22;15177;50.844;4.412;2023-02-05T14:40:40;9.30;99.90
27797;DHT22;15177;50.844;4.412;2023-02-05T14:43:25;9.30;99.90
27797;DHT22;15177;50.844;4.412;2023-02-05T14:45:52;9.30;99.90
27797;DHT22;15177;50.844;4.412;2023-02-05T14:48:25;9.20;99.90
27797;DHT22;15177;50.844;4.412;2023-02-05T14:51:23;9.20;99.90
27797;DHT22;15177;50.844;4.412;2023-02-05T14:54:04;9.20;99.90
27797;DHT22;15177;50.844;4.412;2023-02-05T14:56:50;9.20;99.90
27797;DHT22;15177;50.844;4.412;2023-02-05T15:01:44;9.20;99.90
27797;DHT22;15177;50.844;4.412;2023-02-05T15:04:39;9.30;99.90
27797;DHT22;15177;50.844;4.412;2023-02-05T15:07:14;9.50;99.90
27797;DHT22;15177;50.844;4.412;2023-02-05T15:09:51;9.40;99.90
27797;DHT22;15177;50.844;4.412;2023-02-05T15:15:31;9.30;99.90
27797;DHT22;15177;50.844;4.412;2023-02-05T15:20:44;9.30;99.90
27797;DHT22;15177;50.844;4.412;2023-02-05T15:23:19;9.30;99.90
27797;DHT22;15177;50.844;4.412;2023-02-05T15:26:13;9.40;99.90
27797;DHT22;15177;50.844;4.412;2023-02-05T15:29:05;9.30;99.90
27797;DHT22;15177;50.844;4.412;2023-02-05T15:31:44;9.20;99.90
27797;DHT22;15177;50.844;4.412;2023-02-05T15:34:31;9.10;99.90
27797;DHT22;15177;50.844;4.412;2023-02-05T15:39:56;9.10;99.90
27797;DHT22;15177;50.844;4.412;2023-02-05T15:44:58;9.00;99.90
27797;DHT22;15177;50.844;4.412;2023-02-05T15:47:40;9.20;99.90
27797;DHT22;15177;50.844;4.412;2023-02-05T15:50:06;9.20;99.90
27797;DHT22;15177;50.844;4.412;2023-02-05T15:52:36;9.20;99.90
27797;DHT22;15177;50.844;4.412;2023-02-05T15:55:11;9.10;99.90
27797;DHT22;15177;50.844;4.412;2023-02-05T15:57:38;9.10;99.90
27797;DHT22;15177;50.844;4.412;2023-02-05T16:00:07;9.10;99.90
27797;DHT22;15177;50.844;4.412;2023-02-05T16:02:35;9.10;99.90
27797;DHT22;15177;50.844;4.412;2023-02-05T16:05:14;9.10;99.90
27797;DHT22;15177;50.844;4.412;2023-02-05T16:07:42;9.10;99.90
27797;DHT22;15177;50.844;4.412;2023-02-05T16:10:26;9.00;99.90
27797;DHT22;15177;50.844;4.412;2023-02-05T16:13:06;8.90;99.90
27797;DHT22;15177;50.844;4.412;2023-02-05T16:15:37;8.90;99.90
27797;DHT22;15177;50.844;4.412;2023-02-05T16:18:07;8.90;99.90
27797;DHT22;15177;50.844;4.412;2023-02-05T16:20:40;8.90;99.90
27797;DHT22;15177;50.844;4.412;2023-02-05T16:23:33;8.90;99.90
27797;DHT22;15177;50.844;4.412;2023-02-05T16:26:03;8.90;99.90
27797;DHT22;15177;50.844;4.412;2023-02-05T16:28:46;8.80;99.90
27797;DHT22;15177;50.844;4.412;2023-02-05T16:31:19;8.80;99.90
27797;DHT22;15177;50.844;4.412;2023-02-05T16:33:59;8.70;99.90
27797;DHT22;15177;50.844;4.412;2023-02-05T16:36:32;8.80;99.90
27797;DHT22;15177;50.844;4.412;2023-02-05T16:39:01;8.80;99.90
27797;DHT22;15177;50.844;4.412;2023-02-05T16:43:55;8.70;99.90
27797;DHT22;15177;50.844;4.412;2023-02-05T16:46:27;8.70;99.90
27797;DHT22;15177;50.844;4.412;2023-02-05T16:56:38;8.70;99.90
27797;DHT22;15177;50.844;4.412;2023-02-05T16:59:16;8.60;99.90
27797;DHT22;15177;50.844;4.412;2023-02-05T17:01:43;8.60;99.90
27797;DHT22;15177;50.844;4.412;2023-02-05T17:04:35;8.60;99.90
27797;DHT22;15177;50.844;4.412;2023-02-05T17:07:15;8.50;99.90
27797;DHT22;15177;50.844;4.412;2023-02-05T17:09:41;8.50;99.90
27797;DHT22;15177;50.844;4.412;2023-02-05T17:15:08;8.20;99.90
27797;DHT22;15177;50.844;4.412;2023-02-05T17:17:52;8.20;99.90
27797;DHT22;15177;50.844;4.412;2023-02-05T17:20:36;8.20;99.90
27797;DHT22;15177;50.844;4.412;2023-02-05T17:23:06;8.20;99.90
27797;DHT22;15177;50.844;4.412;2023-02-05T17:28:17;8.20;99.90
27797;DHT22;15177;50.844;4.412;2023-02-05T17:30:47;8.20;99.90
27797;DHT22;15177;50.844;4.412;2023-02-05T17:33:20;8.10;99.90
27797;DHT22;15177;50.844;4.412;2023-02-05T17:35:47;8.10;99.90
27797;DHT22;15177;50.844;4.412;2023-02-05T17:38:14;8.20;99.90
27797;DHT22;15177;50.844;4.412;2023-02-05T17:40:41;8.20;99.90
27797;DHT22;15177;50.844;4.412;2023-02-05T17:43:08;8.10;99.90
27797;DHT22;15177;50.844;4.412;2023-02-05T17:45:36;8.10;99.90
27797;DHT22;15177;50.844;4.412;2023-02-05T17:48:04;8.10;99.90
27797;DHT22;15177;50.844;4.412;2023-02-05T17:50:30;8.00;99.90
27797;DHT22;15177;50.844;4.412;2023-02-05T17:52:59;8.00;99.90
27797;DHT22;15177;50.844;4.412;2023-02-05T17:55:25;7.90;99.90
27797;DHT22;15177;50.844;4.412;2023-02-05T17:57:51;7.90;99.90
27797;DHT22;15177;50.844;4.412;2023-02-05T18:00:24;7.90;99.90
27797;DHT22;15177;50.844;4.412;2023-02-05T18:02:52;7.90;99.90
27797;DHT22;15177;50.844;4.412;2023-02-05T18:05:18;7.80;99.90
27797;DHT22;15177;50.844;4.412;2023-02-05T18:07:50;7.70;99.90
27797;DHT22;15177;50.844;4.412;2023-02-05T18:10:22;7.60;99.90
27797;DHT22;15177;50.844;4.412;2023-02-05T18:12:50;7.60;99.90
27797;DHT22;15177;50.844;4.412;2023-02-05T18:15:18;7.60;99.90
27797;DHT22;15177;50.844;4.412;2023-02-05T18:17:44;7.60;99.90
27797;DHT22;15177;50.844;4.412;2023-02-05T18:20:11;7.70;99.90
27797;DHT22;15177;50.844;4.412;2023-02-05T18:22:37;7.70;99.90
27797;DHT22;15177;50.844;4.412;2023-02-05T18:25:04;7.60;99.90
27797;DHT22;15177;50.844;4.412;2023-02-05T18:27:30;7.50;99.90
27797;DHT22;15177;50.844;4.412;2023-02-05T18:29:57;7.50;99.90
27797;DHT22;15177;50.844;4.412;2023-02-05T18:32:23;7.50;99.90
27797;DHT22;15177;50.844;4.412;2023-02-05T18:34:49;7.40;99.90
27797;DHT22;15177;50.844;4.412;2023-02-05T18:37:16;7.50;99.90
27797;DHT22;15177;50.844;4.412;2023-02-05T18:39:43;7.40;99.90